This is the latest recevied weather packets stored in our database for station/object G6FCI. If no packets are shown the sender has not sent any weather packets the latest 10 day(s).
| Time | Temp. | Humidity | Pressure | Rain* | Wind** | Luminosity | Snow |
|---|---|---|---|---|---|---|---|
| 1777349343 | 10° C | 69% | 1028.5 hPa | 0 mm | - | - | - |
| 1777347903 | 8.89° C | 70% | 1028.4 hPa | 0 mm | - | - | - |
| 1777345203 | 8.89° C | 70% | 1028.3 hPa | 0 mm | - | - | - |
| 1777342143 | 8.89° C | 71% | 1028.3 hPa | 0 mm | - | - | - |
| 1777339644 | 8.33° C | 73% | 1028.1 hPa | 0 mm | - | - | - |
| 1777337103 | 8.89° C | 73% | 1027.8 hPa | 0 mm | - | - | - |
| 1777334943 | 8.89° C | 73% | 1027.7 hPa | 0 mm | - | - | - |
| 1777330804 | 10° C | 72% | 1027.2 hPa | 0 mm | - | - | - |
| 1777329384 | 10.56° C | 72% | 1027.3 hPa | 0 mm | - | - | - |
| 1777324143 | 11.11° C | 71% | 1026.7 hPa | 0 mm | - | - | - |
| 1777323603 | 11.11° C | 71% | 1026.8 hPa | 0 mm | - | - | - |
| 1777320003 | 12.22° C | 72% | 1026.4 hPa | 0 mm | - | - | - |
| 1777312443 | 13.89° C | 73% | 1025.7 hPa | 0 mm | - | - | - |
| 1777308843 | 14.44° C | 73% | 1025.6 hPa | 0 mm | - | - | - |
| 1777304724 | 15.56° C | 72% | 1025.2 hPa | 0 mm | - | - | - |
| 1777301103 | 15° C | 71% | 1025.4 hPa | 0 mm | - | - | - |
| 1777300023 | 15.56° C | 71% | 1025.5 hPa | 0 mm | - | - | - |
| 1777298943 | 15.56° C | 69% | 1025.7 hPa | 0 mm | - | - | - |
| 1777295883 | 15.56° C | 66% | 1025.7 hPa | 0 mm | - | - | - |
| 1777294803 | 15° C | 70% | 1025.7 hPa | 0 mm | - | - | - |
| 1777294443 | 15° C | 69% | 1025.8 hPa | 0 mm | - | - | - |
| 1777291765 | 14.44° C | 67% | 1026.3 hPa | 0 mm | - | - | - |
| 1777289223 | 13.89° C | 68% | 1026.2 hPa | 0 mm | - | - | - |
| 1777287243 | 13.33° C | 70% | 1026.4 hPa | 0 mm | - | - | - |
| 1777286703 | 13.33° C | 70% | 1026.5 hPa | 0 mm | - | - | - |
* Rain latest hour (hover to see other rain measurements)
** Current wind speed in m/s (hover to see current wind gust speed)